sensor_id;sensor_type;location;lat;lon;timestamp;temperature;humidity
32097;DHT22;18610;49.916;8.284;2022-12-13T00:00:30;-2.10;99.90
32097;DHT22;18610;49.916;8.284;2022-12-13T00:02:56;-2.10;99.90
32097;DHT22;18610;49.916;8.284;2022-12-13T00:05:23;-2.10;99.90
32097;DHT22;18610;49.916;8.284;2022-12-13T00:07:50;-2.20;99.90
32097;DHT22;18610;49.916;8.284;2022-12-13T00:10:17;-2.30;99.90
32097;DHT22;18610;49.916;8.284;2022-12-13T00:12:43;-2.40;99.90
32097;DHT22;18610;49.916;8.284;2022-12-13T00:15:11;-2.40;99.90
32097;DHT22;18610;49.916;8.284;2022-12-13T00:17:38;-2.50;99.90
32097;DHT22;18610;49.916;8.284;2022-12-13T00:20:05;-2.50;99.90
32097;DHT22;18610;49.916;8.284;2022-12-13T00:22:33;-2.50;99.90
32097;DHT22;18610;49.916;8.284;2022-12-13T00:24:59;-2.50;99.90
32097;DHT22;18610;49.916;8.284;2022-12-13T00:27:26;-2.50;99.90
32097;DHT22;18610;49.916;8.284;2022-12-13T00:29:53;-2.50;99.90
32097;DHT22;18610;49.916;8.284;2022-12-13T00:32:21;-2.50;99.90
32097;DHT22;18610;49.916;8.284;2022-12-13T00:34:48;-2.50;99.90
32097;DHT22;18610;49.916;8.284;2022-12-13T00:37:14;-2.50;99.90
32097;DHT22;18610;49.916;8.284;2022-12-13T00:39:41;-2.40;99.90
32097;DHT22;18610;49.916;8.284;2022-12-13T00:42:08;-2.40;99.90
32097;DHT22;18610;49.916;8.284;2022-12-13T00:44:35;-2.40;99.90
32097;DHT22;18610;49.916;8.284;2022-12-13T00:47:01;-2.40;99.90
32097;DHT22;18610;49.916;8.284;2022-12-13T00:49:29;-2.40;99.90
32097;DHT22;18610;49.916;8.284;2022-12-13T00:51:56;-2.40;99.90
32097;DHT22;18610;49.916;8.284;2022-12-13T00:54:24;-2.40;99.90
32097;DHT22;18610;49.916;8.284;2022-12-13T00:56:51;-2.40;99.90
32097;DHT22;18610;49.916;8.284;2022-12-13T00:59:18;-2.50;99.90
32097;DHT22;18610;49.916;8.284;2022-12-13T01:01:44;-2.50;99.90
32097;DHT22;18610;49.916;8.284;2022-12-13T01:04:11;-2.60;99.90
32097;DHT22;18610;49.916;8.284;2022-12-13T01:06:41;-2.60;99.90
32097;DHT22;18610;49.916;8.284;2022-12-13T01:09:14;-2.60;99.90
32097;DHT22;18610;49.916;8.284;2022-12-13T01:11:41;-2.60;99.90
32097;DHT22;18610;49.916;8.284;2022-12-13T01:14:08;-2.70;99.90
32097;DHT22;18610;49.916;8.284;2022-12-13T01:16:35;-2.70;99.90
32097;DHT22;18610;49.916;8.284;2022-12-13T01:19:02;-2.70;99.90
32097;DHT22;18610;49.916;8.284;2022-12-13T01:21:29;-2.70;99.90
32097;DHT22;18610;49.916;8.284;2022-12-13T01:24:01;-2.70;99.90
32097;DHT22;18610;49.916;8.284;2022-12-13T01:26:28;-2.70;99.90
32097;DHT22;18610;49.916;8.284;2022-12-13T01:28:55;-2.70;99.90
32097;DHT22;18610;49.916;8.284;2022-12-13T01:31:22;-2.70;99.90
32097;DHT22;18610;49.916;8.284;2022-12-13T01:33:49;-2.70;99.90
32097;DHT22;18610;49.916;8.284;2022-12-13T01:36:17;-2.70;99.90
32097;DHT22;18610;49.916;8.284;2022-12-13T01:38:44;-2.70;99.90
32097;DHT22;18610;49.916;8.284;2022-12-13T01:41:14;-2.70;99.90
32097;DHT22;18610;49.916;8.284;2022-12-13T01:43:53;-2.80;99.90
32097;DHT22;18610;49.916;8.284;2022-12-13T01:46:21;-2.80;99.90
32097;DHT22;18610;49.916;8.284;2022-12-13T01:48:52;-2.80;99.90
32097;DHT22;18610;49.916;8.284;2022-12-13T01:51:23;-2.80;99.90
32097;DHT22;18610;49.916;8.284;2022-12-13T01:53:53;-2.80;99.90
32097;DHT22;18610;49.916;8.284;2022-12-13T01:56:25;-2.80;99.90
32097;DHT22;18610;49.916;8.284;2022-12-13T01:58:54;-2.80;99.90
32097;DHT22;18610;49.916;8.284;2022-12-13T02:01:21;-2.90;99.90
32097;DHT22;18610;49.916;8.284;2022-12-13T02:03:48;-2.90;99.90
32097;DHT22;18610;49.916;8.284;2022-12-13T02:06:17;-2.90;99.90
32097;DHT22;18610;49.916;8.284;2022-12-13T02:08:45;-2.90;99.90
32097;DHT22;18610;49.916;8.284;2022-12-13T02:11:12;-2.90;99.90
32097;DHT22;18610;49.916;8.284;2022-12-13T02:13:40;-3.00;99.90
32097;DHT22;18610;49.916;8.284;2022-12-13T02:16:13;-3.00;99.90
32097;DHT22;18610;49.916;8.284;2022-12-13T02:18:55;-3.00;99.90
32097;DHT22;18610;49.916;8.284;2022-12-13T02:21:31;-3.00;99.90
32097;DHT22;18610;49.916;8.284;2022-12-13T02:24:33;-3.00;99.90
32097;DHT22;18610;49.916;8.284;2022-12-13T02:27:12;-3.00;99.90
32097;DHT22;18610;49.916;8.284;2022-12-13T02:33:10;-2.90;99.90
32097;DHT22;18610;49.916;8.284;2022-12-13T02:35:44;-2.80;99.90
32097;DHT22;18610;49.916;8.284;2022-12-13T02:38:21;-2.80;99.90
32097;DHT22;18610;49.916;8.284;2022-12-13T02:40:52;-2.80;99.90
32097;DHT22;18610;49.916;8.284;2022-12-13T02:43:24;-2.80;99.90
32097;DHT22;18610;49.916;8.284;2022-12-13T02:45:53;-2.80;99.90
32097;DHT22;18610;49.916;8.284;2022-12-13T02:48:26;-2.80;99.90
32097;DHT22;18610;49.916;8.284;2022-12-13T02:50:55;-2.80;99.90
32097;DHT22;18610;49.916;8.284;2022-12-13T02:53:22;-2.80;99.90
32097;DHT22;18610;49.916;8.284;2022-12-13T02:55:49;-2.80;99.90
32097;DHT22;18610;49.916;8.284;2022-12-13T02:58:21;-2.90;99.90
32097;DHT22;18610;49.916;8.284;2022-12-13T03:00:53;-2.90;99.90
32097;DHT22;18610;49.916;8.284;2022-12-13T03:03:32;-2.80;99.90
32097;DHT22;18610;49.916;8.284;2022-12-13T03:06:10;-2.90;99.90
32097;DHT22;18610;49.916;8.284;2022-12-13T03:08:58;-2.90;99.90
32097;DHT22;18610;49.916;8.284;2022-12-13T03:11:40;-2.80;99.90
32097;DHT22;18610;49.916;8.284;2022-12-13T03:14:27;-2.80;99.90
32097;DHT22;18610;49.916;8.284;2022-12-13T03:16:55;-2.80;99.90
32097;DHT22;18610;49.916;8.284;2022-12-13T03:19:24;-2.80;99.90
32097;DHT22;18610;49.916;8.284;2022-12-13T03:21:51;-2.90;99.90
32097;DHT22;18610;49.916;8.284;2022-12-13T03:24:19;-2.90;99.90
32097;DHT22;18610;49.916;8.284;2022-12-13T03:26:47;-2.90;99.90
32097;DHT22;18610;49.916;8.284;2022-12-13T03:29:15;-2.90;99.90
32097;DHT22;18610;49.916;8.284;2022-12-13T03:31:41;-2.90;99.90
32097;DHT22;18610;49.916;8.284;2022-12-13T03:34:08;-3.00;99.90
32097;DHT22;18610;49.916;8.284;2022-12-13T03:36:36;-3.00;99.90
32097;DHT22;18610;49.916;8.284;2022-12-13T03:39:03;-3.00;99.90
32097;DHT22;18610;49.916;8.284;2022-12-13T03:41:30;-3.00;99.90
32097;DHT22;18610;49.916;8.284;2022-12-13T03:43:58;-3.10;99.90
32097;DHT22;18610;49.916;8.284;2022-12-13T03:46:25;-3.10;99.90
32097;DHT22;18610;49.916;8.284;2022-12-13T03:48:52;-3.10;99.90
32097;DHT22;18610;49.916;8.284;2022-12-13T03:51:18;-3.10;99.90
32097;DHT22;18610;49.916;8.284;2022-12-13T03:53:46;-3.10;99.90
32097;DHT22;18610;49.916;8.284;2022-12-13T03:56:13;-3.10;99.90
32097;DHT22;18610;49.916;8.284;2022-12-13T03:58:40;-3.10;99.90
32097;DHT22;18610;49.916;8.284;2022-12-13T04:01:09;-3.10;99.90
32097;DHT22;18610;49.916;8.284;2022-12-13T04:03:37;-3.10;99.90
32097;DHT22;18610;49.916;8.284;2022-12-13T04:06:05;-3.10;99.90
32097;DHT22;18610;49.916;8.284;2022-12-13T04:08:32;-3.20;99.90
32097;DHT22;18610;49.916;8.284;2022-12-13T04:11:00;-3.20;99.90
32097;DHT22;18610;49.916;8.284;2022-12-13T04:13:49;-3.30;99.90
32097;DHT22;18610;49.916;8.284;2022-12-13T04:16:14;-3.30;99.90
32097;DHT22;18610;49.916;8.284;2022-12-13T04:18:41;-3.40;99.90
32097;DHT22;18610;49.916;8.284;2022-12-13T04:21:09;-3.40;99.90
32097;DHT22;18610;49.916;8.284;2022-12-13T04:23:36;-3.40;99.90
32097;DHT22;18610;49.916;8.284;2022-12-13T04:26:04;-3.50;99.90
32097;DHT22;18610;49.916;8.284;2022-12-13T04:28:31;-3.50;99.90
32097;DHT22;18610;49.916;8.284;2022-12-13T04:30:57;-3.50;99.90
32097;DHT22;18610;49.916;8.284;2022-12-13T04:33:24;-3.50;99.90
32097;DHT22;18610;49.916;8.284;2022-12-13T04:35:51;-3.50;99.90
32097;DHT22;18610;49.916;8.284;2022-12-13T04:38:18;-3.60;99.90
32097;DHT22;18610;49.916;8.284;2022-12-13T04:40:45;-3.70;99.90
32097;DHT22;18610;49.916;8.284;2022-12-13T04:43:13;-3.80;99.90
32097;DHT22;18610;49.916;8.284;2022-12-13T04:45:40;-3.80;99.90
32097;DHT22;18610;49.916;8.284;2022-12-13T04:48:07;-3.90;99.90
32097;DHT22;18610;49.916;8.284;2022-12-13T04:50:34;-3.90;99.90
32097;DHT22;18610;49.916;8.284;2022-12-13T04:53:00;-3.90;99.90
32097;DHT22;18610;49.916;8.284;2022-12-13T04:55:27;-4.00;99.90
32097;DHT22;18610;49.916;8.284;2022-12-13T04:57:54;-4.00;99.90
32097;DHT22;18610;49.916;8.284;2022-12-13T05:00:22;-4.00;99.90
32097;DHT22;18610;49.916;8.284;2022-12-13T05:02:49;-4.00;99.90
32097;DHT22;18610;49.916;8.284;2022-12-13T05:05:15;-4.10;99.90
32097;DHT22;18610;49.916;8.284;2022-12-13T05:07:42;-4.10;99.90
32097;DHT22;18610;49.916;8.284;2022-12-13T05:10:10;-4.10;99.90
32097;DHT22;18610;49.916;8.284;2022-12-13T05:12:37;-4.10;99.90
32097;DHT22;18610;49.916;8.284;2022-12-13T05:15:05;-4.00;99.90
32097;DHT22;18610;49.916;8.284;2022-12-13T05:17:33;-4.00;99.90
32097;DHT22;18610;49.916;8.284;2022-12-13T05:20:00;-4.00;99.90
32097;DHT22;18610;49.916;8.284;2022-12-13T05:22:26;-4.00;99.90
32097;DHT22;18610;49.916;8.284;2022-12-13T05:24:53;-4.10;99.90
32097;DHT22;18610;49.916;8.284;2022-12-13T05:27:20;-4.10;99.90
32097;DHT22;18610;49.916;8.284;2022-12-13T05:29:47;-4.20;99.90
32097;DHT22;18610;49.916;8.284;2022-12-13T05:32:13;-4.20;99.90
32097;DHT22;18610;49.916;8.284;2022-12-13T05:34:41;-4.20;99.90
32097;DHT22;18610;49.916;8.284;2022-12-13T05:37:08;-4.30;99.90
32097;DHT22;18610;49.916;8.284;2022-12-13T05:39:35;-4.30;99.90
32097;DHT22;18610;49.916;8.284;2022-12-13T05:42:02;-4.30;99.90
32097;DHT22;18610;49.916;8.284;2022-12-13T05:44:29;-4.30;99.90
32097;DHT22;18610;49.916;8.284;2022-12-13T05:46:57;-4.30;99.90
32097;DHT22;18610;49.916;8.284;2022-12-13T05:49:23;-4.30;99.90
32097;DHT22;18610;49.916;8.284;2022-12-13T05:51:52;-4.40;99.90
32097;DHT22;18610;49.916;8.284;2022-12-13T05:54:19;-4.40;99.90
32097;DHT22;18610;49.916;8.284;2022-12-13T05:56:45;-4.40;99.90
32097;DHT22;18610;49.916;8.284;2022-12-13T05:59:12;-4.30;99.90
32097;DHT22;18610;49.916;8.284;2022-12-13T06:01:39;-4.30;99.90
32097;DHT22;18610;49.916;8.284;2022-12-13T06:04:06;-4.30;99.90
32097;DHT22;18610;49.916;8.284;2022-12-13T06:06:32;-4.30;99.90
32097;DHT22;18610;49.916;8.284;2022-12-13T06:09:00;-4.30;99.90
32097;DHT22;18610;49.916;8.284;2022-12-13T06:11:28;-4.30;99.90
32097;DHT22;18610;49.916;8.284;2022-12-13T06:13:54;-4.30;99.90
32097;DHT22;18610;49.916;8.284;2022-12-13T06:16:21;-4.30;99.90
32097;DHT22;18610;49.916;8.284;2022-12-13T06:18:48;-4.30;99.90
32097;DHT22;18610;49.916;8.284;2022-12-13T06:21:15;-4.30;99.90
32097;DHT22;18610;49.916;8.284;2022-12-13T06:23:41;-4.30;99.90
32097;DHT22;18610;49.916;8.284;2022-12-13T06:26:11;-4.20;99.90
32097;DHT22;18610;49.916;8.284;2022-12-13T06:28:38;-4.20;99.90
32097;DHT22;18610;49.916;8.284;2022-12-13T06:31:05;-4.20;99.90
32097;DHT22;18610;49.916;8.284;2022-12-13T06:33:32;-4.20;99.90
32097;DHT22;18610;49.916;8.284;2022-12-13T06:36:02;-4.20;99.90
32097;DHT22;18610;49.916;8.284;2022-12-13T06:38:29;-4.20;99.90
32097;DHT22;18610;49.916;8.284;2022-12-13T06:41:06;-4.30;99.90
32097;DHT22;18610;49.916;8.284;2022-12-13T06:43:35;-4.30;99.90
32097;DHT22;18610;49.916;8.284;2022-12-13T06:46:02;-4.20;99.90
32097;DHT22;18610;49.916;8.284;2022-12-13T06:48:29;-4.30;99.90
32097;DHT22;18610;49.916;8.284;2022-12-13T06:50:59;-4.20;99.90
32097;DHT22;18610;49.916;8.284;2022-12-13T06:53:26;-4.20;99.90
32097;DHT22;18610;49.916;8.284;2022-12-13T06:55:52;-4.30;99.90
32097;DHT22;18610;49.916;8.284;2022-12-13T06:58:19;-4.30;99.90
32097;DHT22;18610;49.916;8.284;2022-12-13T07:00:47;-4.30;99.90
32097;DHT22;18610;49.916;8.284;2022-12-13T07:03:14;-4.20;99.90
32097;DHT22;18610;49.916;8.284;2022-12-13T07:05:42;-4.30;99.90
32097;DHT22;18610;49.916;8.284;2022-12-13T07:08:09;-4.20;99.90
32097;DHT22;18610;49.916;8.284;2022-12-13T07:10:38;-4.20;99.90
32097;DHT22;18610;49.916;8.284;2022-12-13T07:13:05;-4.20;99.90
32097;DHT22;18610;49.916;8.284;2022-12-13T07:15:32;-4.20;99.90
32097;DHT22;18610;49.916;8.284;2022-12-13T07:18:00;-4.20;99.90
32097;DHT22;18610;49.916;8.284;2022-12-13T07:20:27;-4.20;99.90
32097;DHT22;18610;49.916;8.284;2022-12-13T07:22:54;-4.20;99.90
32097;DHT22;18610;49.916;8.284;2022-12-13T07:25:21;-4.20;99.90
32097;DHT22;18610;49.916;8.284;2022-12-13T07:27:58;-4.10;99.90
32097;DHT22;18610;49.916;8.284;2022-12-13T07:30:25;-4.10;99.90
32097;DHT22;18610;49.916;8.284;2022-12-13T07:32:51;-4.10;99.90
32097;DHT22;18610;49.916;8.284;2022-12-13T07:35:20;-4.10;99.90
32097;DHT22;18610;49.916;8.284;2022-12-13T07:37:46;-4.10;99.90
32097;DHT22;18610;49.916;8.284;2022-12-13T07:40:13;-4.00;99.90
32097;DHT22;18610;49.916;8.284;2022-12-13T07:42:40;-4.00;99.90
32097;DHT22;18610;49.916;8.284;2022-12-13T07:45:07;-4.00;99.90
32097;DHT22;18610;49.916;8.284;2022-12-13T07:47:34;-3.90;99.90
32097;DHT22;18610;49.916;8.284;2022-12-13T07:50:01;-3.80;99.90
32097;DHT22;18610;49.916;8.284;2022-12-13T07:52:29;-3.80;99.90
32097;DHT22;18610;49.916;8.284;2022-12-13T07:54:55;-3.70;99.90
32097;DHT22;18610;49.916;8.284;2022-12-13T07:57:22;-3.70;99.90
32097;DHT22;18610;49.916;8.284;2022-12-13T07:59:49;-3.70;99.90
32097;DHT22;18610;49.916;8.284;2022-12-13T08:02:15;-3.60;99.90
32097;DHT22;18610;49.916;8.284;2022-12-13T08:04:42;-3.50;99.90
32097;DHT22;18610;49.916;8.284;2022-12-13T08:07:10;-3.40;99.90
32097;DHT22;18610;49.916;8.284;2022-12-13T08:09:38;-3.40;99.90
32097;DHT22;18610;49.916;8.284;2022-12-13T08:12:05;-3.30;99.90
32097;DHT22;18610;49.916;8.284;2022-12-13T08:14:32;-3.20;99.90
32097;DHT22;18610;49.916;8.284;2022-12-13T08:16:59;-3.20;99.90
32097;DHT22;18610;49.916;8.284;2022-12-13T08:19:26;-3.10;99.90
32097;DHT22;18610;49.916;8.284;2022-12-13T08:21:52;-3.00;99.90
32097;DHT22;18610;49.916;8.284;2022-12-13T08:24:21;-3.00;99.90
32097;DHT22;18610;49.916;8.284;2022-12-13T08:26:49;-2.90;99.90
32097;DHT22;18610;49.916;8.284;2022-12-13T08:29:16;-2.80;99.90
32097;DHT22;18610;49.916;8.284;2022-12-13T08:31:43;-2.70;99.90
32097;DHT22;18610;49.916;8.284;2022-12-13T08:34:09;-2.60;99.90
32097;DHT22;18610;49.916;8.284;2022-12-13T08:36:37;-2.50;99.90
32097;DHT22;18610;49.916;8.284;2022-12-13T08:39:04;-2.50;99.90
32097;DHT22;18610;49.916;8.284;2022-12-13T08:41:31;-2.40;99.90
32097;DHT22;18610;49.916;8.284;2022-12-13T08:43:59;-2.30;99.90
32097;DHT22;18610;49.916;8.284;2022-12-13T08:46:25;-2.20;99.90
32097;DHT22;18610;49.916;8.284;2022-12-13T08:48:53;-2.10;99.90
32097;DHT22;18610;49.916;8.284;2022-12-13T08:51:20;-2.00;99.90
32097;DHT22;18610;49.916;8.284;2022-12-13T08:53:48;-1.90;99.90
32097;DHT22;18610;49.916;8.284;2022-12-13T08:56:15;-1.80;99.90
32097;DHT22;18610;49.916;8.284;2022-12-13T08:58:43;-1.60;99.90
32097;DHT22;18610;49.916;8.284;2022-12-13T09:01:11;-1.40;99.90
32097;DHT22;18610;49.916;8.284;2022-12-13T09:03:38;-1.20;99.90
32097;DHT22;18610;49.916;8.284;2022-12-13T09:06:06;-1.00;99.90
32097;DHT22;18610;49.916;8.284;2022-12-13T09:08:33;-0.80;99.90
32097;DHT22;18610;49.916;8.284;2022-12-13T09:11:01;-0.50;99.90
32097;DHT22;18610;49.916;8.284;2022-12-13T09:13:28;-0.30;99.90
32097;DHT22;18610;49.916;8.284;2022-12-13T09:15:55;-0.10;99.90
32097;DHT22;18610;49.916;8.284;2022-12-13T09:18:24;0.00;99.90
32097;DHT22;18610;49.916;8.284;2022-12-13T09:20:51;0.20;99.90
32097;DHT22;18610;49.916;8.284;2022-12-13T09:23:18;0.40;99.90
32097;DHT22;18610;49.916;8.284;2022-12-13T09:25:52;0.60;99.90
32097;DHT22;18610;49.916;8.284;2022-12-13T09:28:19;0.80;99.90
32097;DHT22;18610;49.916;8.284;2022-12-13T09:30:46;0.90;99.90
32097;DHT22;18610;49.916;8.284;2022-12-13T09:33:12;1.10;99.90
32097;DHT22;18610;49.916;8.284;2022-12-13T09:35:41;1.20;99.90
32097;DHT22;18610;49.916;8.284;2022-12-13T09:38:07;1.30;99.90
32097;DHT22;18610;49.916;8.284;2022-12-13T09:40:36;1.40;99.90
32097;DHT22;18610;49.916;8.284;2022-12-13T09:43:04;1.50;99.90
32097;DHT22;18610;49.916;8.284;2022-12-13T09:45:33;1.60;99.90
32097;DHT22;18610;49.916;8.284;2022-12-13T09:48:00;1.80;99.90
32097;DHT22;18610;49.916;8.284;2022-12-13T09:50:30;1.80;99.90
32097;DHT22;18610;49.916;8.284;2022-12-13T09:53:00;2.00;99.90
32097;DHT22;18610;49.916;8.284;2022-12-13T09:55:30;2.10;99.90
32097;DHT22;18610;49.916;8.284;2022-12-13T09:57:59;2.20;99.90
32097;DHT22;18610;49.916;8.284;2022-12-13T10:00:34;2.30;99.90
32097;DHT22;18610;49.916;8.284;2022-12-13T10:03:01;2.40;99.90
32097;DHT22;18610;49.916;8.284;2022-12-13T10:05:30;2.60;99.90
32097;DHT22;18610;49.916;8.284;2022-12-13T10:08:02;2.70;99.90
32097;DHT22;18610;49.916;8.284;2022-12-13T10:10:30;2.80;99.90
32097;DHT22;18610;49.916;8.284;2022-12-13T10:12:59;3.00;99.90
32097;DHT22;18610;49.916;8.284;2022-12-13T10:15:28;3.10;99.90
32097;DHT22;18610;49.916;8.284;2022-12-13T10:17:57;3.20;99.90
32097;DHT22;18610;49.916;8.284;2022-12-13T10:20:25;3.40;99.90
32097;DHT22;18610;49.916;8.284;2022-12-13T10:22:54;3.60;99.90
32097;DHT22;18610;49.916;8.284;2022-12-13T10:25:43;3.70;99.90
32097;DHT22;18610;49.916;8.284;2022-12-13T10:28:10;3.90;99.90
32097;DHT22;18610;49.916;8.284;2022-12-13T10:30:39;4.00;99.90
32097;DHT22;18610;49.916;8.284;2022-12-13T10:33:18;4.20;99.90
32097;DHT22;18610;49.916;8.284;2022-12-13T10:36:07;4.30;99.90
32097;DHT22;18610;49.916;8.284;2022-12-13T10:38:35;4.40;99.90
32097;DHT22;18610;49.916;8.284;2022-12-13T10:41:24;4.50;99.90
32097;DHT22;18610;49.916;8.284;2022-12-13T10:44:07;4.60;99.90
32097;DHT22;18610;49.916;8.284;2022-12-13T10:46:34;4.70;99.60
32097;DHT22;18610;49.916;8.284;2022-12-13T10:49:00;4.80;99.20
32097;DHT22;18610;49.916;8.284;2022-12-13T10:51:36;4.90;99.40
32097;DHT22;18610;49.916;8.284;2022-12-13T10:54:04;5.00;98.90
32097;DHT22;18610;49.916;8.284;2022-12-13T10:56:35;5.10;98.50
32097;DHT22;18610;49.916;8.284;2022-12-13T10:59:11;5.20;98.00
32097;DHT22;18610;49.916;8.284;2022-12-13T11:01:47;5.30;97.50
32097;DHT22;18610;49.916;8.284;2022-12-13T11:04:22;5.30;96.30
32097;DHT22;18610;49.916;8.284;2022-12-13T11:06:50;5.50;96.90
32097;DHT22;18610;49.916;8.284;2022-12-13T11:09:24;5.60;96.10
32097;DHT22;18610;49.916;8.284;2022-12-13T11:11:55;5.70;96.90
32097;DHT22;18610;49.916;8.284;2022-12-13T11:14:24;5.90;96.90
32097;DHT22;18610;49.916;8.284;2022-12-13T11:16:55;6.00;95.10
32097;DHT22;18610;49.916;8.284;2022-12-13T11:19:26;6.10;95.70
32097;DHT22;18610;49.916;8.284;2022-12-13T11:21:54;6.20;95.30
32097;DHT22;18610;49.916;8.284;2022-12-13T11:24:23;6.30;94.30
32097;DHT22;18610;49.916;8.284;2022-12-13T11:26:56;6.30;93.30
32097;DHT22;18610;49.916;8.284;2022-12-13T11:29:38;6.40;94.10
32097;DHT22;18610;49.916;8.284;2022-12-13T11:32:12;6.40;92.80
32097;DHT22;18610;49.916;8.284;2022-12-13T11:34:46;6.30;92.80
32097;DHT22;18610;49.916;8.284;2022-12-13T11:37:24;6.40;92.80
32097;DHT22;18610;49.916;8.284;2022-12-13T11:39:54;6.40;91.70
32097;DHT22;18610;49.916;8.284;2022-12-13T11:42:28;6.30;91.90
32097;DHT22;18610;49.916;8.284;2022-12-13T11:45:00;6.30;92.30
32097;DHT22;18610;49.916;8.284;2022-12-13T11:47:34;6.30;91.40
32097;DHT22;18610;49.916;8.284;2022-12-13T11:50:05;6.20;90.90
32097;DHT22;18610;49.916;8.284;2022-12-13T11:52:41;6.30;92.20
32097;DHT22;18610;49.916;8.284;2022-12-13T11:55:15;6.40;91.30
32097;DHT22;18610;49.916;8.284;2022-12-13T11:57:47;6.50;91.50
32097;DHT22;18610;49.916;8.284;2022-12-13T12:00:26;6.60;90.50
32097;DHT22;18610;49.916;8.284;2022-12-13T12:02:59;6.70;90.90
32097;DHT22;18610;49.916;8.284;2022-12-13T12:05:30;6.80;91.00
32097;DHT22;18610;49.916;8.284;2022-12-13T12:08:01;6.90;91.60
32097;DHT22;18610;49.916;8.284;2022-12-13T12:10:32;7.00;90.50
32097;DHT22;18610;49.916;8.284;2022-12-13T12:13:06;7.10;90.60
32097;DHT22;18610;49.916;8.284;2022-12-13T12:15:42;7.30;90.00
32097;DHT22;18610;49.916;8.284;2022-12-13T12:18:13;7.40;87.70
32097;DHT22;18610;49.916;8.284;2022-12-13T12:20:51;7.50;90.50
32097;DHT22;18610;49.916;8.284;2022-12-13T12:23:30;7.60;87.50
32097;DHT22;18610;49.916;8.284;2022-12-13T12:26:05;7.60;84.70
32097;DHT22;18610;49.916;8.284;2022-12-13T12:28:55;7.70;84.60
32097;DHT22;18610;49.916;8.284;2022-12-13T12:31:30;7.80;83.70
32097;DHT22;18610;49.916;8.284;2022-12-13T12:34:06;7.90;84.10
32097;DHT22;18610;49.916;8.284;2022-12-13T12:36:52;7.90;82.90
32097;DHT22;18610;49.916;8.284;2022-12-13T12:39:32;7.90;81.20
32097;DHT22;18610;49.916;8.284;2022-12-13T12:42:20;8.00;81.80
32097;DHT22;18610;49.916;8.284;2022-12-13T12:44:59;8.10;83.20
32097;DHT22;18610;49.916;8.284;2022-12-13T12:47:33;8.20;84.40
32097;DHT22;18610;49.916;8.284;2022-12-13T12:50:21;8.20;79.10
32097;DHT22;18610;49.916;8.284;2022-12-13T12:52:59;8.20;79.80
32097;DHT22;18610;49.916;8.284;2022-12-13T12:55:37;8.20;78.60
32097;DHT22;18610;49.916;8.284;2022-12-13T12:58:14;8.20;76.50
32097;DHT22;18610;49.916;8.284;2022-12-13T13:00:51;8.10;76.70
32097;DHT22;18610;49.916;8.284;2022-12-13T13:03:22;8.10;76.20
32097;DHT22;18610;49.916;8.284;2022-12-13T13:05:53;8.00;76.10
32097;DHT22;18610;49.916;8.284;2022-12-13T13:08:25;8.00;77.00
32097;DHT22;18610;49.916;8.284;2022-12-13T13:10:52;8.10;75.90
32097;DHT22;18610;49.916;8.284;2022-12-13T13:13:38;8.40;75.60
32097;DHT22;18610;49.916;8.284;2022-12-13T13:16:29;8.60;72.70
32097;DHT22;18610;49.916;8.284;2022-12-13T13:18:56;8.70;71.70
32097;DHT22;18610;49.916;8.284;2022-12-13T13:21:44;8.70;71.40
32097;DHT22;18610;49.916;8.284;2022-12-13T13:24:29;8.80;71.20
32097;DHT22;18610;49.916;8.284;2022-12-13T13:26:58;8.80;70.90
32097;DHT22;18610;49.916;8.284;2022-12-13T13:29:31;8.60;70.90
32097;DHT22;18610;49.916;8.284;2022-12-13T13:32:04;8.50;71.70
32097;DHT22;18610;49.916;8.284;2022-12-13T13:34:33;8.60;71.00
32097;DHT22;18610;49.916;8.284;2022-12-13T13:37:01;8.70;71.60
32097;DHT22;18610;49.916;8.284;2022-12-13T13:39:56;8.80;71.00
32097;DHT22;18610;49.916;8.284;2022-12-13T13:42:24;8.80;70.70
32097;DHT22;18610;49.916;8.284;2022-12-13T13:48:09;8.80;70.00
32097;DHT22;18610;49.916;8.284;2022-12-13T13:51:19;8.60;69.60
32097;DHT22;18610;49.916;8.284;2022-12-13T13:57:31;8.60;70.30
32097;DHT22;18610;49.916;8.284;2022-12-13T14:00:17;8.60;69.10
32097;DHT22;18610;49.916;8.284;2022-12-13T14:06:16;8.50;69.00
32097;DHT22;18610;49.916;8.284;2022-12-13T14:09:07;8.50;69.00
32097;DHT22;18610;49.916;8.284;2022-12-13T14:15:00;8.50;69.00
32097;DHT22;18610;49.916;8.284;2022-12-13T14:21:04;7.80;70.50
32097;DHT22;18610;49.916;8.284;2022-12-13T14:23:45;7.30;71.70
32097;DHT22;18610;49.916;8.284;2022-12-13T14:26:42;6.80;73.70
32097;DHT22;18610;49.916;8.284;2022-12-13T14:29:12;6.30;75.50
32097;DHT22;18610;49.916;8.284;2022-12-13T14:31:41;5.90;77.60
32097;DHT22;18610;49.916;8.284;2022-12-13T14:34:18;5.40;79.60
32097;DHT22;18610;49.916;8.284;2022-12-13T14:36:53;5.00;81.60
32097;DHT22;18610;49.916;8.284;2022-12-13T14:39:22;4.70;83.90
32097;DHT22;18610;49.916;8.284;2022-12-13T14:41:51;4.30;85.70
32097;DHT22;18610;49.916;8.284;2022-12-13T14:44:21;4.10;87.70
32097;DHT22;18610;49.916;8.284;2022-12-13T14:46:50;3.90;89.00
32097;DHT22;18610;49.916;8.284;2022-12-13T14:49:18;3.70;89.50
32097;DHT22;18610;49.916;8.284;2022-12-13T14:51:46;3.50;90.40
32097;DHT22;18610;49.916;8.284;2022-12-13T14:54:18;3.30;91.10
32097;DHT22;18610;49.916;8.284;2022-12-13T14:56:58;3.00;91.90
32097;DHT22;18610;49.916;8.284;2022-12-13T14:59:25;2.80;92.60
32097;DHT22;18610;49.916;8.284;2022-12-13T15:01:54;2.60;93.30
32097;DHT22;18610;49.916;8.284;2022-12-13T15:04:25;2.50;94.00
32097;DHT22;18610;49.916;8.284;2022-12-13T15:07:02;2.30;94.70
32097;DHT22;18610;49.916;8.284;2022-12-13T15:09:34;2.20;95.60
32097;DHT22;18610;49.916;8.284;2022-12-13T15:12:09;2.10;96.20
32097;DHT22;18610;49.916;8.284;2022-12-13T15:14:37;1.90;96.90
32097;DHT22;18610;49.916;8.284;2022-12-13T15:17:24;1.70;97.80
32097;DHT22;18610;49.916;8.284;2022-12-13T15:19:51;1.60;98.10
32097;DHT22;18610;49.916;8.284;2022-12-13T15:22:18;1.50;98.80
32097;DHT22;18610;49.916;8.284;2022-12-13T15:24:46;1.40;99.40
32097;DHT22;18610;49.916;8.284;2022-12-13T15:27:16;1.30;99.90
32097;DHT22;18610;49.916;8.284;2022-12-13T15:29:44;1.30;99.90
32097;DHT22;18610;49.916;8.284;2022-12-13T15:32:13;1.20;99.90
32097;DHT22;18610;49.916;8.284;2022-12-13T15:34:43;1.10;99.90
32097;DHT22;18610;49.916;8.284;2022-12-13T15:37:16;1.00;99.90
32097;DHT22;18610;49.916;8.284;2022-12-13T15:39:45;0.90;99.90
32097;DHT22;18610;49.916;8.284;2022-12-13T15:42:18;0.90;99.90
32097;DHT22;18610;49.916;8.284;2022-12-13T15:44:48;0.90;99.90
32097;DHT22;18610;49.916;8.284;2022-12-13T15:47:19;0.80;99.90
32097;DHT22;18610;49.916;8.284;2022-12-13T15:49:50;0.70;99.90
32097;DHT22;18610;49.916;8.284;2022-12-13T15:52:28;0.60;99.90
32097;DHT22;18610;49.916;8.284;2022-12-13T15:54:56;0.50;99.90
32097;DHT22;18610;49.916;8.284;2022-12-13T15:57:26;0.50;99.90
32097;DHT22;18610;49.916;8.284;2022-12-13T16:00:19;0.30;99.90
32097;DHT22;18610;49.916;8.284;2022-12-13T16:02:50;0.30;99.90
32097;DHT22;18610;49.916;8.284;2022-12-13T16:05:27;0.20;99.90
32097;DHT22;18610;49.916;8.284;2022-12-13T16:07:56;0.20;99.90
32097;DHT22;18610;49.916;8.284;2022-12-13T16:10:24;0.20;99.90
32097;DHT22;18610;49.916;8.284;2022-12-13T16:12:55;0.10;99.90
32097;DHT22;18610;49.916;8.284;2022-12-13T16:15:23;0.00;99.90
32097;DHT22;18610;49.916;8.284;2022-12-13T16:17:52;0.00;99.90